<?xml version="1.0" encoding="UTF-8" standalone="no" ?>
<gpx xmlns="http://www.topografix.com/GPX/1/1" xmlns:xsi="http://www.w3.org/2001/XMLSchema-instance" xsi:schemaLocation="http://www.topografix.com/GPX/1/1 http://www.topografix.com/GPX/1/1/gpx.xsd" version="1.1" creator="VisuGPX - https://www.visugpx.com">
  <metadata>
    <name>Boucle des Moyens - 15 Janvier 2014</name>
    <desc><![CDATA[Boucle des Moyens]]></desc>
  </metadata>
  <trk>
    <name><![CDATA[15-JAN-14 boucle des moyens]]></name>
    <trkseg>
      <trkpt lat="43.0194" lon="-0.09581">
        <ele>413.02</ele>
        <time>2014-01-15T13:05:19Z</time>
      </trkpt>
      <trkpt lat="43.0194" lon="-0.09581">
        <ele>413.98</ele>
        <time>2014-01-15T13:05:21Z</time>
      </trkpt>
      <trkpt lat="43.01943" lon="-0.09579">
        <ele>413.98</ele>
        <time>2014-01-15T13:05:45Z</time>
      </trkpt>
      <trkpt lat="43.0194" lon="-0.09582">
        <ele>413.98</ele>
        <time>2014-01-15T13:05:59Z</time>
      </trkpt>
      <trkpt lat="43.0194" lon="-0.09582">
        <ele>414.47</ele>
        <time>2014-01-15T13:06:26Z</time>
      </trkpt>
      <trkpt lat="43.0194" lon="-0.09582">
        <ele>413.98</ele>
        <time>2014-01-15T13:07:05Z</time>
      </trkpt>
      <trkpt lat="43.01941" lon="-0.09581">
        <ele>414.47</ele>
        <time>2014-01-15T13:07:41Z</time>
      </trkpt>
      <trkpt lat="43.01941" lon="-0.0958">
        <ele>414.47</ele>
        <time>2014-01-15T13:08:24Z</time>
      </trkpt>
      <trkpt lat="43.01941" lon="-0.09579">
        <ele>415.43</ele>
        <time>2014-01-15T13:09:10Z</time>
      </trkpt>
      <trkpt lat="43.01941" lon="-0.09576">
        <ele>415.43</ele>
        <time>2014-01-15T13:09:56Z</time>
      </trkpt>
      <trkpt lat="43.01941" lon="-0.09576">
        <ele>415.43</ele>
        <time>2014-01-15T13:10:30Z</time>
      </trkpt>
      <trkpt lat="43.0194" lon="-0.09575">
        <ele>415.43</ele>
        <time>2014-01-15T13:11:14Z</time>
      </trkpt>
      <trkpt lat="43.01941" lon="-0.09575">
        <ele>415.43</ele>
        <time>2014-01-15T13:11:47Z</time>
      </trkpt>
      <trkpt lat="43.0194" lon="-0.09577">
        <ele>415.43</ele>
        <time>2014-01-15T13:12:25Z</time>
      </trkpt>
      <trkpt lat="43.0194" lon="-0.09577">
        <ele>414.95</ele>
        <time>2014-01-15T13:13:03Z</time>
      </trkpt>
      <trkpt lat="43.01942" lon="-0.09578">
        <ele>415.43</ele>
        <time>2014-01-15T13:13:43Z</time>
      </trkpt>
      <trkpt lat="43.01942" lon="-0.09579">
        <ele>415.43</ele>
        <time>2014-01-15T13:14:22Z</time>
      </trkpt>
      <trkpt lat="43.01942" lon="-0.09581">
        <ele>415.43</ele>
        <time>2014-01-15T13:14:59Z</time>
      </trkpt>
      <trkpt lat="43.01942" lon="-0.09581">
        <ele>415.91</ele>
        <time>2014-01-15T13:15:40Z</time>
      </trkpt>
      <trkpt lat="43.01941" lon="-0.0958">
        <ele>415.91</ele>
        <time>2014-01-15T13:16:16Z</time>
      </trkpt>
      <trkpt lat="43.01941" lon="-0.09581">
        <ele>415.91</ele>
        <time>2014-01-15T13:16:51Z</time>
      </trkpt>
      <trkpt lat="43.0194" lon="-0.09581">
        <ele>415.91</ele>
        <time>2014-01-15T13:17:26Z</time>
      </trkpt>
      <trkpt lat="43.01939" lon="-0.09581">
        <ele>416.39</ele>
        <time>2014-01-15T13:17:59Z</time>
      </trkpt>
      <trkpt lat="43.01939" lon="-0.0958">
        <ele>416.39</ele>
        <time>2014-01-15T13:18:38Z</time>
      </trkpt>
      <trkpt lat="43.01941" lon="-0.09579">
        <ele>416.87</ele>
        <time>2014-01-15T13:19:17Z</time>
      </trkpt>
      <trkpt lat="43.01942" lon="-0.09579">
        <ele>416.39</ele>
        <time>2014-01-15T13:19:53Z</time>
      </trkpt>
      <trkpt lat="43.01942" lon="-0.09576">
        <ele>416.87</ele>
        <time>2014-01-15T13:20:38Z</time>
      </trkpt>
      <trkpt lat="43.01941" lon="-0.09575">
        <ele>416.39</ele>
        <time>2014-01-15T13:21:17Z</time>
      </trkpt>
      <trkpt lat="43.0194" lon="-0.09576">
        <ele>417.35</ele>
        <time>2014-01-15T13:21:53Z</time>
      </trkpt>
      <trkpt lat="43.01939" lon="-0.09579">
        <ele>417.35</ele>
        <time>2014-01-15T13:22:36Z</time>
      </trkpt>
      <trkpt lat="43.0194" lon="-0.0958">
        <ele>417.35</ele>
        <time>2014-01-15T13:23:17Z</time>
      </trkpt>
      <trkpt lat="43.0194" lon="-0.09578">
        <ele>417.35</ele>
        <time>2014-01-15T13:24:02Z</time>
      </trkpt>
      <trkpt lat="43.01939" lon="-0.09579">
        <ele>417.83</ele>
        <time>2014-01-15T13:24:40Z</time>
      </trkpt>
      <trkpt lat="43.0194" lon="-0.09577">
        <ele>417.83</ele>
        <time>2014-01-15T13:25:19Z</time>
      </trkpt>
      <trkpt lat="43.01939" lon="-0.09578">
        <ele>417.35</ele>
        <time>2014-01-15T13:25:54Z</time>
      </trkpt>
      <trkpt lat="43.01938" lon="-0.09579">
        <ele>417.83</ele>
        <time>2014-01-15T13:26:30Z</time>
      </trkpt>
      <trkpt lat="43.01938" lon="-0.0958">
        <ele>417.35</ele>
        <time>2014-01-15T13:26:48Z</time>
      </trkpt>
      <trkpt lat="43.01939" lon="-0.0958">
        <ele>417.83</ele>
        <time>2014-01-15T13:27:00Z</time>
      </trkpt>
      <trkpt lat="43.01939" lon="-0.09575">
        <ele>417.83</ele>
        <time>2014-01-15T13:27:03Z</time>
      </trkpt>
      <trkpt lat="43.01937" lon="-0.09563">
        <ele>417.83</ele>
        <time>2014-01-15T13:27:13Z</time>
      </trkpt>
      <trkpt lat="43.01937" lon="-0.09562">
        <ele>418.31</ele>
        <time>2014-01-15T13:27:17Z</time>
      </trkpt>
      <trkpt lat="43.01932" lon="-0.09562">
        <ele>418.31</ele>
        <time>2014-01-15T13:27:23Z</time>
      </trkpt>
      <trkpt lat="43.01908" lon="-0.09587">
        <ele>418.31</ele>
        <time>2014-01-15T13:27:34Z</time>
      </trkpt>
      <trkpt lat="43.01872" lon="-0.09619">
        <ele>419.27</ele>
        <time>2014-01-15T13:27:47Z</time>
      </trkpt>
      <trkpt lat="43.01838" lon="-0.09644">
        <ele>419.27</ele>
        <time>2014-01-15T13:27:56Z</time>
      </trkpt>
      <trkpt lat="43.01769" lon="-0.09677">
        <ele>420.23</ele>
        <time>2014-01-15T13:28:12Z</time>
      </trkpt>
      <trkpt lat="43.01755" lon="-0.09682">
        <ele>420.23</ele>
        <time>2014-01-15T13:28:15Z</time>
      </trkpt>
      <trkpt lat="43.01709" lon="-0.09693">
        <ele>420.71</ele>
        <time>2014-01-15T13:28:24Z</time>
      </trkpt>
      <trkpt lat="43.01613" lon="-0.09718">
        <ele>421.68</ele>
        <time>2014-01-15T13:28:43Z</time>
      </trkpt>
      <trkpt lat="43.01531" lon="-0.09741">
        <ele>422.64</ele>
        <time>2014-01-15T13:28:59Z</time>
      </trkpt>
      <trkpt lat="43.01438" lon="-0.09765">
        <ele>423.6</ele>
        <time>2014-01-15T13:29:16Z</time>
      </trkpt>
      <trkpt lat="43.01341" lon="-0.09779">
        <ele>424.56</ele>
        <time>2014-01-15T13:29:34Z</time>
      </trkpt>
      <trkpt lat="43.01248" lon="-0.09785">
        <ele>424.56</ele>
        <time>2014-01-15T13:29:50Z</time>
      </trkpt>
      <trkpt lat="43.01158" lon="-0.09789">
        <ele>424.56</ele>
        <time>2014-01-15T13:30:03Z</time>
      </trkpt>
      <trkpt lat="43.01107" lon="-0.09785">
        <ele>426.48</ele>
        <time>2014-01-15T13:30:11Z</time>
      </trkpt>
      <trkpt lat="43.01021" lon="-0.09759">
        <ele>428.89</ele>
        <time>2014-01-15T13:30:27Z</time>
      </trkpt>
      <trkpt lat="43.0099" lon="-0.0974">
        <ele>430.33</ele>
        <time>2014-01-15T13:30:33Z</time>
      </trkpt>
      <trkpt lat="43.00919" lon="-0.09673">
        <ele>432.25</ele>
        <time>2014-01-15T13:30:49Z</time>
      </trkpt>
      <trkpt lat="43.00849" lon="-0.09596">
        <ele>431.77</ele>
        <time>2014-01-15T13:31:05Z</time>
      </trkpt>
      <trkpt lat="43.00818" lon="-0.09556">
        <ele>431.77</ele>
        <time>2014-01-15T13:31:12Z</time>
      </trkpt>
      <trkpt lat="43.00795" lon="-0.09529">
        <ele>432.25</ele>
        <time>2014-01-15T13:31:18Z</time>
      </trkpt>
      <trkpt lat="43.00738" lon="-0.09461">
        <ele>432.25</ele>
        <time>2014-01-15T13:31:31Z</time>
      </trkpt>
      <trkpt lat="43.00663" lon="-0.09369">
        <ele>432.25</ele>
        <time>2014-01-15T13:31:47Z</time>
      </trkpt>
      <trkpt lat="43.00643" lon="-0.09345">
        <ele>433.21</ele>
        <time>2014-01-15T13:31:56Z</time>
      </trkpt>
      <trkpt lat="43.00642" lon="-0.09344">
        <ele>433.21</ele>
        <time>2014-01-15T13:31:58Z</time>
      </trkpt>
      <trkpt lat="43.00637" lon="-0.09338">
        <ele>432.73</ele>
        <time>2014-01-15T13:32:03Z</time>
      </trkpt>
      <trkpt lat="43.0063" lon="-0.09332">
        <ele>432.25</ele>
        <time>2014-01-15T13:32:05Z</time>
      </trkpt>
      <trkpt lat="43.00619" lon="-0.09319">
        <ele>431.77</ele>
        <time>2014-01-15T13:32:08Z</time>
      </trkpt>
      <trkpt lat="43.00586" lon="-0.09278">
        <ele>431.77</ele>
        <time>2014-01-15T13:32:15Z</time>
      </trkpt>
      <trkpt lat="43.00517" lon="-0.09194">
        <ele>431.77</ele>
        <time>2014-01-15T13:32:29Z</time>
      </trkpt>
      <trkpt lat="43.00442" lon="-0.09112">
        <ele>432.73</ele>
        <time>2014-01-15T13:32:45Z</time>
      </trkpt>
      <trkpt lat="43.00359" lon="-0.09048">
        <ele>432.73</ele>
        <time>2014-01-15T13:33:01Z</time>
      </trkpt>
      <trkpt lat="43.00333" lon="-0.09029">
        <ele>432.73</ele>
        <time>2014-01-15T13:33:06Z</time>
      </trkpt>
      <trkpt lat="43.00321" lon="-0.09023">
        <ele>433.69</ele>
        <time>2014-01-15T13:33:08Z</time>
      </trkpt>
      <trkpt lat="43.00297" lon="-0.09019">
        <ele>432.73</ele>
        <time>2014-01-15T13:33:12Z</time>
      </trkpt>
      <trkpt lat="43.00263" lon="-0.09007">
        <ele>432.25</ele>
        <time>2014-01-15T13:33:19Z</time>
      </trkpt>
      <trkpt lat="43.00246" lon="-0.08994">
        <ele>432.73</ele>
        <time>2014-01-15T13:33:23Z</time>
      </trkpt>
      <trkpt lat="43.00239" lon="-0.08985">
        <ele>432.25</ele>
        <time>2014-01-15T13:33:25Z</time>
      </trkpt>
      <trkpt lat="43.00221" lon="-0.08954">
        <ele>433.69</ele>
        <time>2014-01-15T13:33:32Z</time>
      </trkpt>
      <trkpt lat="43.00216" lon="-0.08951">
        <ele>433.69</ele>
        <time>2014-01-15T13:33:35Z</time>
      </trkpt>
      <trkpt lat="43.00209" lon="-0.08963">
        <ele>431.77</ele>
        <time>2014-01-15T13:33:41Z</time>
      </trkpt>
      <trkpt lat="43.00196" lon="-0.08974">
        <ele>432.25</ele>
        <time>2014-01-15T13:33:48Z</time>
      </trkpt>
      <trkpt lat="43.00197" lon="-0.08973">
        <ele>432.73</ele>
        <time>2014-01-15T13:34:00Z</time>
      </trkpt>
      <trkpt lat="43.00196" lon="-0.08971">
        <ele>432.73</ele>
        <time>2014-01-15T13:34:15Z</time>
      </trkpt>
      <trkpt lat="43.00196" lon="-0.08987">
        <ele>431.77</ele>
        <time>2014-01-15T13:34:22Z</time>
      </trkpt>
      <trkpt lat="43.00199" lon="-0.09001">
        <ele>432.25</ele>
        <time>2014-01-15T13:34:30Z</time>
      </trkpt>
      <trkpt lat="43.00204" lon="-0.08967">
        <ele>431.77</ele>
        <time>2014-01-15T13:34:36Z</time>
      </trkpt>
      <trkpt lat="43.0022" lon="-0.08953">
        <ele>433.21</ele>
        <time>2014-01-15T13:34:40Z</time>
      </trkpt>
      <trkpt lat="43.00222" lon="-0.08952">
        <ele>433.69</ele>
        <time>2014-01-15T13:34:44Z</time>
      </trkpt>
      <trkpt lat="43.00218" lon="-0.08954">
        <ele>434.17</ele>
        <time>2014-01-15T13:34:57Z</time>
      </trkpt>
      <trkpt lat="43.0022" lon="-0.08951">
        <ele>434.17</ele>
        <time>2014-01-15T13:35:25Z</time>
      </trkpt>
      <trkpt lat="43.0022" lon="-0.08952">
        <ele>433.69</ele>
        <time>2014-01-15T13:35:35Z</time>
      </trkpt>
      <trkpt lat="43.00209" lon="-0.08943">
        <ele>433.69</ele>
        <time>2014-01-15T13:35:43Z</time>
      </trkpt>
      <trkpt lat="43.00208" lon="-0.08945">
        <ele>433.69</ele>
        <time>2014-01-15T13:35:51Z</time>
      </trkpt>
      <trkpt lat="43.00209" lon="-0.08944">
        <ele>433.69</ele>
        <time>2014-01-15T13:36:02Z</time>
      </trkpt>
      <trkpt lat="43.00213" lon="-0.08948">
        <ele>433.69</ele>
        <time>2014-01-15T13:36:15Z</time>
      </trkpt>
      <trkpt lat="43.00223" lon="-0.08954">
        <ele>433.21</ele>
        <time>2014-01-15T13:36:21Z</time>
      </trkpt>
      <trkpt lat="43.00212" lon="-0.08969">
        <ele>431.77</ele>
        <time>2014-01-15T13:36:26Z</time>
      </trkpt>
      <trkpt lat="43.00196" lon="-0.08975">
        <ele>431.77</ele>
        <time>2014-01-15T13:36:31Z</time>
      </trkpt>
      <trkpt lat="43.00197" lon="-0.08989">
        <ele>431.77</ele>
        <time>2014-01-15T13:36:34Z</time>
      </trkpt>
      <trkpt lat="43.00195" lon="-0.08991">
        <ele>431.77</ele>
        <time>2014-01-15T13:36:38Z</time>
      </trkpt>
      <trkpt lat="43.00216" lon="-0.08955">
        <ele>431.77</ele>
        <time>2014-01-15T13:36:45Z</time>
      </trkpt>
      <trkpt lat="43.00213" lon="-0.08948">
        <ele>433.69</ele>
        <time>2014-01-15T13:36:51Z</time>
      </trkpt>
      <trkpt lat="43.00211" lon="-0.08947">
        <ele>434.17</ele>
        <time>2014-01-15T13:36:52Z</time>
      </trkpt>
      <trkpt lat="43.00206" lon="-0.08942">
        <ele>433.69</ele>
        <time>2014-01-15T13:36:56Z</time>
      </trkpt>
      <trkpt lat="43.00199" lon="-0.08938">
        <ele>434.17</ele>
        <time>2014-01-15T13:37:01Z</time>
      </trkpt>
      <trkpt lat="43.00205" lon="-0.08941">
        <ele>433.69</ele>
        <time>2014-01-15T13:37:05Z</time>
      </trkpt>
      <trkpt lat="43.00215" lon="-0.08947">
        <ele>433.69</ele>
        <time>2014-01-15T13:37:19Z</time>
      </trkpt>
      <trkpt lat="43.00214" lon="-0.08948">
        <ele>434.17</ele>
        <time>2014-01-15T13:37:35Z</time>
      </trkpt>
      <trkpt lat="43.00194" lon="-0.08934">
        <ele>433.69</ele>
        <time>2014-01-15T13:37:46Z</time>
      </trkpt>
      <trkpt lat="43.00171" lon="-0.08917">
        <ele>433.69</ele>
        <time>2014-01-15T13:37:56Z</time>
      </trkpt>
      <trkpt lat="43.00144" lon="-0.08897">
        <ele>434.17</ele>
        <time>2014-01-15T13:38:06Z</time>
      </trkpt>
      <trkpt lat="43.00117" lon="-0.0888">
        <ele>434.17</ele>
        <time>2014-01-15T13:38:16Z</time>
      </trkpt>
      <trkpt lat="43.00086" lon="-0.08857">
        <ele>434.65</ele>
        <time>2014-01-15T13:38:25Z</time>
      </trkpt>
      <trkpt lat="43.00031" lon="-0.0882">
        <ele>434.65</ele>
        <time>2014-01-15T13:38:39Z</time>
      </trkpt>
      <trkpt lat="43.00027" lon="-0.08817">
        <ele>434.17</ele>
        <time>2014-01-15T13:38:40Z</time>
      </trkpt>
      <trkpt lat="43.0001" lon="-0.08804">
        <ele>434.65</ele>
        <time>2014-01-15T13:38:44Z</time>
      </trkpt>
      <trkpt lat="42.99974" lon="-0.08779">
        <ele>434.65</ele>
        <time>2014-01-15T13:38:54Z</time>
      </trkpt>
      <trkpt lat="42.99967" lon="-0.08766">
        <ele>431.29</ele>
        <time>2014-01-15T13:38:58Z</time>
      </trkpt>
      <trkpt lat="42.99953" lon="-0.08755">
        <ele>430.81</ele>
        <time>2014-01-15T13:39:01Z</time>
      </trkpt>
      <trkpt lat="42.99945" lon="-0.08747">
        <ele>430.33</ele>
        <time>2014-01-15T13:39:03Z</time>
      </trkpt>
      <trkpt lat="42.99925" lon="-0.08716">
        <ele>429.85</ele>
        <time>2014-01-15T13:39:10Z</time>
      </trkpt>
      <trkpt lat="42.99895" lon="-0.08694">
        <ele>429.85</ele>
        <time>2014-01-15T13:39:19Z</time>
      </trkpt>
      <trkpt lat="42.99888" lon="-0.0869">
        <ele>429.37</ele>
        <time>2014-01-15T13:39:21Z</time>
      </trkpt>
      <trkpt lat="42.99859" lon="-0.08672">
        <ele>428.89</ele>
        <time>2014-01-15T13:39:29Z</time>
      </trkpt>
      <trkpt lat="42.99849" lon="-0.08666">
        <ele>428.89</ele>
        <time>2014-01-15T13:39:32Z</time>
      </trkpt>
      <trkpt lat="42.99829" lon="-0.08655">
        <ele>428.89</ele>
        <time>2014-01-15T13:39:38Z</time>
      </trkpt>
      <trkpt lat="42.99813" lon="-0.08645">
        <ele>427.44</ele>
        <time>2014-01-15T13:39:42Z</time>
      </trkpt>
      <trkpt lat="42.99796" lon="-0.08635">
        <ele>427.44</ele>
        <time>2014-01-15T13:39:52Z</time>
      </trkpt>
      <trkpt lat="42.99796" lon="-0.08633">
        <ele>427.44</ele>
        <time>2014-01-15T13:40:06Z</time>
      </trkpt>
      <trkpt lat="42.99791" lon="-0.08602">
        <ele>427.44</ele>
        <time>2014-01-15T13:40:15Z</time>
      </trkpt>
      <trkpt lat="42.9979" lon="-0.08557">
        <ele>427.44</ele>
        <time>2014-01-15T13:40:24Z</time>
      </trkpt>
      <trkpt lat="42.99791" lon="-0.08509">
        <ele>425.52</ele>
        <time>2014-01-15T13:40:31Z</time>
      </trkpt>
      <trkpt lat="42.99791" lon="-0.08478">
        <ele>425.04</ele>
        <time>2014-01-15T13:40:35Z</time>
      </trkpt>
      <trkpt lat="42.99811" lon="-0.08409">
        <ele>424.56</ele>
        <time>2014-01-15T13:40:45Z</time>
      </trkpt>
      <trkpt lat="42.99811" lon="-0.08332">
        <ele>424.56</ele>
        <time>2014-01-15T13:40:56Z</time>
      </trkpt>
      <trkpt lat="42.99814" lon="-0.08296">
        <ele>425.04</ele>
        <time>2014-01-15T13:41:01Z</time>
      </trkpt>
      <trkpt lat="42.99826" lon="-0.08271">
        <ele>424.56</ele>
        <time>2014-01-15T13:41:05Z</time>
      </trkpt>
      <trkpt lat="42.99865" lon="-0.08248">
        <ele>424.56</ele>
        <time>2014-01-15T13:41:13Z</time>
      </trkpt>
      <trkpt lat="42.99875" lon="-0.08243">
        <ele>425.04</ele>
        <time>2014-01-15T13:41:15Z</time>
      </trkpt>
      <trkpt lat="42.9989" lon="-0.08195">
        <ele>424.56</ele>
        <time>2014-01-15T13:41:23Z</time>
      </trkpt>
      <trkpt lat="42.99886" lon="-0.08166">
        <ele>424.08</ele>
        <time>2014-01-15T13:41:27Z</time>
      </trkpt>
      <trkpt lat="42.9989" lon="-0.08138">
        <ele>424.08</ele>
        <time>2014-01-15T13:41:31Z</time>
      </trkpt>
      <trkpt lat="42.99896" lon="-0.08126">
        <ele>424.56</ele>
        <time>2014-01-15T13:41:33Z</time>
      </trkpt>
      <trkpt lat="42.99907" lon="-0.08109">
        <ele>424.08</ele>
        <time>2014-01-15T13:41:37Z</time>
      </trkpt>
      <trkpt lat="42.99915" lon="-0.08102">
        <ele>424.08</ele>
        <time>2014-01-15T13:41:41Z</time>
      </trkpt>
      <trkpt lat="42.99954" lon="-0.08099">
        <ele>423.6</ele>
        <time>2014-01-15T13:41:52Z</time>
      </trkpt>
      <trkpt lat="42.99969" lon="-0.08094">
        <ele>423.12</ele>
        <time>2014-01-15T13:41:56Z</time>
      </trkpt>
      <trkpt lat="42.99985" lon="-0.08094">
        <ele>423.12</ele>
        <time>2014-01-15T13:42:00Z</time>
      </trkpt>
      <trkpt lat="43.00027" lon="-0.08092">
        <ele>422.64</ele>
        <time>2014-01-15T13:42:12Z</time>
      </trkpt>
      <trkpt lat="43.00057" lon="-0.08094">
        <ele>422.64</ele>
        <time>2014-01-15T13:42:22Z</time>
      </trkpt>
      <trkpt lat="43.00074" lon="-0.08099">
        <ele>422.64</ele>
        <time>2014-01-15T13:42:27Z</time>
      </trkpt>
      <trkpt lat="43.00107" lon="-0.08099">
        <ele>423.12</ele>
        <time>2014-01-15T13:42:37Z</time>
      </trkpt>
      <trkpt lat="43.00115" lon="-0.08101">
        <ele>422.64</ele>
        <time>2014-01-15T13:42:40Z</time>
      </trkpt>
      <trkpt lat="43.00166" lon="-0.08107">
        <ele>424.08</ele>
        <time>2014-01-15T13:42:55Z</time>
      </trkpt>
      <trkpt lat="43.00205" lon="-0.08109">
        <ele>425.04</ele>
        <time>2014-01-15T13:43:06Z</time>
      </trkpt>
      <trkpt lat="43.00214" lon="-0.08112">
        <ele>425.04</ele>
        <time>2014-01-15T13:43:08Z</time>
      </trkpt>
      <trkpt lat="43.00228" lon="-0.08113">
        <ele>424.56</ele>
        <time>2014-01-15T13:43:11Z</time>
      </trkpt>
      <trkpt lat="43.00257" lon="-0.08113">
        <ele>424.08</ele>
        <time>2014-01-15T13:43:17Z</time>
      </trkpt>
      <trkpt lat="43.00313" lon="-0.0812">
        <ele>421.68</ele>
        <time>2014-01-15T13:43:28Z</time>
      </trkpt>
      <trkpt lat="43.0034" lon="-0.08126">
        <ele>421.19</ele>
        <time>2014-01-15T13:43:33Z</time>
      </trkpt>
      <trkpt lat="43.00355" lon="-0.08127">
        <ele>421.19</ele>
        <time>2014-01-15T13:43:36Z</time>
      </trkpt>
      <trkpt lat="43.00425" lon="-0.08135">
        <ele>421.68</ele>
        <time>2014-01-15T13:43:50Z</time>
      </trkpt>
      <trkpt lat="43.00482" lon="-0.0814">
        <ele>422.16</ele>
        <time>2014-01-15T13:44:01Z</time>
      </trkpt>
      <trkpt lat="43.00491" lon="-0.08144">
        <ele>422.64</ele>
        <time>2014-01-15T13:44:03Z</time>
      </trkpt>
      <trkpt lat="43.00502" lon="-0.0815">
        <ele>424.08</ele>
        <time>2014-01-15T13:44:06Z</time>
      </trkpt>
      <trkpt lat="43.0051" lon="-0.0816">
        <ele>424.56</ele>
        <time>2014-01-15T13:44:10Z</time>
      </trkpt>
      <trkpt lat="43.00535" lon="-0.08188">
        <ele>424.56</ele>
        <time>2014-01-15T13:44:20Z</time>
      </trkpt>
      <trkpt lat="43.0054" lon="-0.0817">
        <ele>425.04</ele>
        <time>2014-01-15T13:44:28Z</time>
      </trkpt>
      <trkpt lat="43.00534" lon="-0.08093">
        <ele>425.04</ele>
        <time>2014-01-15T13:44:46Z</time>
      </trkpt>
      <trkpt lat="43.0051" lon="-0.0805">
        <ele>426</ele>
        <time>2014-01-15T13:44:58Z</time>
      </trkpt>
      <trkpt lat="43.00475" lon="-0.08007">
        <ele>424.56</ele>
        <time>2014-01-15T13:45:10Z</time>
      </trkpt>
      <trkpt lat="43.00472" lon="-0.07992">
        <ele>424.56</ele>
        <time>2014-01-15T13:45:15Z</time>
      </trkpt>
      <trkpt lat="43.00463" lon="-0.07979">
        <ele>424.08</ele>
        <time>2014-01-15T13:45:26Z</time>
      </trkpt>
      <trkpt lat="43.00463" lon="-0.07979">
        <ele>424.56</ele>
        <time>2014-01-15T13:45:41Z</time>
      </trkpt>
      <trkpt lat="43.00463" lon="-0.0798">
        <ele>424.08</ele>
        <time>2014-01-15T13:46:10Z</time>
      </trkpt>
      <trkpt lat="43.00462" lon="-0.07979">
        <ele>424.08</ele>
        <time>2014-01-15T13:46:37Z</time>
      </trkpt>
      <trkpt lat="43.00462" lon="-0.07976">
        <ele>424.08</ele>
        <time>2014-01-15T13:47:05Z</time>
      </trkpt>
      <trkpt lat="43.00461" lon="-0.07977">
        <ele>423.6</ele>
        <time>2014-01-15T13:47:31Z</time>
      </trkpt>
      <trkpt lat="43.00461" lon="-0.07978">
        <ele>423.6</ele>
        <time>2014-01-15T13:48:01Z</time>
      </trkpt>
      <trkpt lat="43.00461" lon="-0.07977">
        <ele>424.08</ele>
        <time>2014-01-15T13:48:28Z</time>
      </trkpt>
      <trkpt lat="43.00461" lon="-0.07978">
        <ele>424.56</ele>
        <time>2014-01-15T13:48:53Z</time>
      </trkpt>
      <trkpt lat="43.00461" lon="-0.07979">
        <ele>424.08</ele>
        <time>2014-01-15T13:49:22Z</time>
      </trkpt>
      <trkpt lat="43.00461" lon="-0.07979">
        <ele>424.08</ele>
        <time>2014-01-15T13:49:50Z</time>
      </trkpt>
      <trkpt lat="43.00458" lon="-0.07975">
        <ele>424.08</ele>
        <time>2014-01-15T13:49:57Z</time>
      </trkpt>
      <trkpt lat="43.00458" lon="-0.07965">
        <ele>424.08</ele>
        <time>2014-01-15T13:50:01Z</time>
      </trkpt>
      <trkpt lat="43.0046" lon="-0.07952">
        <ele>425.52</ele>
        <time>2014-01-15T13:50:08Z</time>
      </trkpt>
      <trkpt lat="43.00458" lon="-0.07949">
        <ele>426</ele>
        <time>2014-01-15T13:50:21Z</time>
      </trkpt>
      <trkpt lat="43.00451" lon="-0.07938">
        <ele>427.44</ele>
        <time>2014-01-15T13:50:32Z</time>
      </trkpt>
      <trkpt lat="43.00446" lon="-0.07929">
        <ele>428.4</ele>
        <time>2014-01-15T13:50:41Z</time>
      </trkpt>
      <trkpt lat="43.00444" lon="-0.07921">
        <ele>430.33</ele>
        <time>2014-01-15T13:50:52Z</time>
      </trkpt>
      <trkpt lat="43.00443" lon="-0.07921">
        <ele>431.77</ele>
        <time>2014-01-15T13:51:06Z</time>
      </trkpt>
      <trkpt lat="43.0044" lon="-0.07916">
        <ele>432.73</ele>
        <time>2014-01-15T13:51:19Z</time>
      </trkpt>
      <trkpt lat="43.00439" lon="-0.07915">
        <ele>432.73</ele>
        <time>2014-01-15T13:51:36Z</time>
      </trkpt>
      <trkpt lat="43.00439" lon="-0.07914">
        <ele>432.73</ele>
        <time>2014-01-15T13:51:57Z</time>
      </trkpt>
      <trkpt lat="43.00438" lon="-0.07915">
        <ele>432.25</ele>
        <time>2014-01-15T13:52:19Z</time>
      </trkpt>
      <trkpt lat="43.00438" lon="-0.07914">
        <ele>432.25</ele>
        <time>2014-01-15T13:52:45Z</time>
      </trkpt>
      <trkpt lat="43.00438" lon="-0.07914">
        <ele>432.25</ele>
        <time>2014-01-15T13:53:09Z</time>
      </trkpt>
      <trkpt lat="43.00435" lon="-0.07911">
        <ele>433.21</ele>
        <time>2014-01-15T13:53:23Z</time>
      </trkpt>
      <trkpt lat="43.00433" lon="-0.07908">
        <ele>432.73</ele>
        <time>2014-01-15T13:53:25Z</time>
      </trkpt>
      <trkpt lat="43.00424" lon="-0.07899">
        <ele>433.69</ele>
        <time>2014-01-15T13:53:31Z</time>
      </trkpt>
      <trkpt lat="43.00403" lon="-0.07871">
        <ele>434.65</ele>
        <time>2014-01-15T13:53:44Z</time>
      </trkpt>
      <trkpt lat="43.00385" lon="-0.07836">
        <ele>436.58</ele>
        <time>2014-01-15T13:53:56Z</time>
      </trkpt>
      <trkpt lat="43.00375" lon="-0.07804">
        <ele>438.5</ele>
        <time>2014-01-15T13:54:07Z</time>
      </trkpt>
      <trkpt lat="43.00367" lon="-0.07761">
        <ele>439.46</ele>
        <time>2014-01-15T13:54:19Z</time>
      </trkpt>
      <trkpt lat="43.0036" lon="-0.07742">
        <ele>439.94</ele>
        <time>2014-01-15T13:54:30Z</time>
      </trkpt>
      <trkpt lat="43.0035" lon="-0.07711">
        <ele>440.9</ele>
        <time>2014-01-15T13:54:40Z</time>
      </trkpt>
      <trkpt lat="43.00345" lon="-0.07689">
        <ele>440.9</ele>
        <time>2014-01-15T13:54:45Z</time>
      </trkpt>
      <trkpt lat="43.0034" lon="-0.07667">
        <ele>441.38</ele>
        <time>2014-01-15T13:54:49Z</time>
      </trkpt>
      <trkpt lat="43.00325" lon="-0.07621">
        <ele>441.86</ele>
        <time>2014-01-15T13:55:00Z</time>
      </trkpt>
      <trkpt lat="43.00316" lon="-0.07577">
        <ele>442.34</ele>
        <time>2014-01-15T13:55:10Z</time>
      </trkpt>
      <trkpt lat="43.00321" lon="-0.07533">
        <ele>444.27</ele>
        <time>2014-01-15T13:55:21Z</time>
      </trkpt>
      <trkpt lat="43.00322" lon="-0.07516">
        <ele>444.27</ele>
        <time>2014-01-15T13:55:26Z</time>
      </trkpt>
      <trkpt lat="43.00324" lon="-0.07472">
        <ele>445.23</ele>
        <time>2014-01-15T13:55:38Z</time>
      </trkpt>
      <trkpt lat="43.00328" lon="-0.07463">
        <ele>445.23</ele>
        <time>2014-01-15T13:55:40Z</time>
      </trkpt>
      <trkpt lat="43.00333" lon="-0.07454">
        <ele>444.75</ele>
        <time>2014-01-15T13:55:42Z</time>
      </trkpt>
      <trkpt lat="43.00339" lon="-0.07442">
        <ele>443.79</ele>
        <time>2014-01-15T13:55:44Z</time>
      </trkpt>
      <trkpt lat="43.00337" lon="-0.07402">
        <ele>441.86</ele>
        <time>2014-01-15T13:55:50Z</time>
      </trkpt>
      <trkpt lat="43.00337" lon="-0.07381">
        <ele>441.38</ele>
        <time>2014-01-15T13:55:59Z</time>
      </trkpt>
      <trkpt lat="43.00337" lon="-0.07378">
        <ele>441.38</ele>
        <time>2014-01-15T13:56:14Z</time>
      </trkpt>
      <trkpt lat="43.00336" lon="-0.0738">
        <ele>440.9</ele>
        <time>2014-01-15T13:56:46Z</time>
      </trkpt>
      <trkpt lat="43.00336" lon="-0.07377">
        <ele>440.9</ele>
        <time>2014-01-15T13:57:13Z</time>
      </trkpt>
      <trkpt lat="43.00346" lon="-0.07355">
        <ele>442.82</ele>
        <time>2014-01-15T13:57:21Z</time>
      </trkpt>
      <trkpt lat="43.00349" lon="-0.07351">
        <ele>443.79</ele>
        <time>2014-01-15T13:57:23Z</time>
      </trkpt>
      <trkpt lat="43.00369" lon="-0.07329">
        <ele>444.75</ele>
        <time>2014-01-15T13:57:34Z</time>
      </trkpt>
      <trkpt lat="43.00401" lon="-0.07302">
        <ele>446.19</ele>
        <time>2014-01-15T13:57:47Z</time>
      </trkpt>
      <trkpt lat="43.00429" lon="-0.07287">
        <ele>447.15</ele>
        <time>2014-01-15T13:57:58Z</time>
      </trkpt>
      <trkpt lat="43.00456" lon="-0.07273">
        <ele>449.07</ele>
        <time>2014-01-15T13:58:11Z</time>
      </trkpt>
      <trkpt lat="43.0046" lon="-0.07272">
        <ele>450.03</ele>
        <time>2014-01-15T13:58:13Z</time>
      </trkpt>
      <trkpt lat="43.00475" lon="-0.07261">
        <ele>452.44</ele>
        <time>2014-01-15T13:58:24Z</time>
      </trkpt>
      <trkpt lat="43.0048" lon="-0.07259">
        <ele>452.92</ele>
        <time>2014-01-15T13:58:27Z</time>
      </trkpt>
      <trkpt lat="43.00485" lon="-0.07249">
        <ele>454.36</ele>
        <time>2014-01-15T13:58:37Z</time>
      </trkpt>
      <trkpt lat="43.00484" lon="-0.07249">
        <ele>454.36</ele>
        <time>2014-01-15T13:58:48Z</time>
      </trkpt>
      <trkpt lat="43.00484" lon="-0.07248">
        <ele>454.36</ele>
        <time>2014-01-15T13:59:14Z</time>
      </trkpt>
      <trkpt lat="43.00484" lon="-0.07248">
        <ele>453.88</ele>
        <time>2014-01-15T13:59:41Z</time>
      </trkpt>
      <trkpt lat="43.00484" lon="-0.07248">
        <ele>454.36</ele>
        <time>2014-01-15T14:00:06Z</time>
      </trkpt>
      <trkpt lat="43.00485" lon="-0.07247">
        <ele>453.88</ele>
        <time>2014-01-15T14:00:23Z</time>
      </trkpt>
      <trkpt lat="43.00485" lon="-0.07247">
        <ele>454.36</ele>
        <time>2014-01-15T14:00:33Z</time>
      </trkpt>
      <trkpt lat="43.0049" lon="-0.07243">
        <ele>454.84</ele>
        <time>2014-01-15T14:00:37Z</time>
      </trkpt>
      <trkpt lat="43.0052" lon="-0.07221">
        <ele>456.28</ele>
        <time>2014-01-15T14:00:47Z</time>
      </trkpt>
      <trkpt lat="43.00534" lon="-0.07211">
        <ele>458.21</ele>
        <time>2014-01-15T14:00:51Z</time>
      </trkpt>
      <trkpt lat="43.00567" lon="-0.07184">
        <ele>460.61</ele>
        <time>2014-01-15T14:01:04Z</time>
      </trkpt>
      <trkpt lat="43.00599" lon="-0.07168">
        <ele>460.61</ele>
        <time>2014-01-15T14:01:15Z</time>
      </trkpt>
      <trkpt lat="43.00622" lon="-0.07142">
        <ele>460.13</ele>
        <time>2014-01-15T14:01:24Z</time>
      </trkpt>
      <trkpt lat="43.00629" lon="-0.0711">
        <ele>461.09</ele>
        <time>2014-01-15T14:01:35Z</time>
      </trkpt>
      <trkpt lat="43.00631" lon="-0.07107">
        <ele>461.09</ele>
        <time>2014-01-15T14:01:36Z</time>
      </trkpt>
      <trkpt lat="43.00657" lon="-0.07093">
        <ele>462.05</ele>
        <time>2014-01-15T14:01:46Z</time>
      </trkpt>
      <trkpt lat="43.00672" lon="-0.07093">
        <ele>461.57</ele>
        <time>2014-01-15T14:01:52Z</time>
      </trkpt>
      <trkpt lat="43.00684" lon="-0.07079">
        <ele>462.53</ele>
        <time>2014-01-15T14:01:59Z</time>
      </trkpt>
      <trkpt lat="43.00692" lon="-0.07075">
        <ele>462.53</ele>
        <time>2014-01-15T14:02:03Z</time>
      </trkpt>
      <trkpt lat="43.00708" lon="-0.07069">
        <ele>462.53</ele>
        <time>2014-01-15T14:02:10Z</time>
      </trkpt>
      <trkpt lat="43.00746" lon="-0.07052">
        <ele>463.01</ele>
        <time>2014-01-15T14:02:22Z</time>
      </trkpt>
      <trkpt lat="43.00771" lon="-0.07039">
        <ele>462.05</ele>
        <time>2014-01-15T14:02:28Z</time>
      </trkpt>
      <trkpt lat="43.00809" lon="-0.07016">
        <ele>460.13</ele>
        <time>2014-01-15T14:02:36Z</time>
      </trkpt>
      <trkpt lat="43.00839" lon="-0.07004">
        <ele>459.65</ele>
        <time>2014-01-15T14:02:44Z</time>
      </trkpt>
      <trkpt lat="43.00859" lon="-0.06993">
        <ele>458.21</ele>
        <time>2014-01-15T14:02:50Z</time>
      </trkpt>
      <trkpt lat="43.00901" lon="-0.06994">
        <ele>456.28</ele>
        <time>2014-01-15T14:03:00Z</time>
      </trkpt>
      <trkpt lat="43.0095" lon="-0.07006">
        <ele>455.32</ele>
        <time>2014-01-15T14:03:12Z</time>
      </trkpt>
      <trkpt lat="43.00962" lon="-0.07">
        <ele>454.84</ele>
        <time>2014-01-15T14:03:16Z</time>
      </trkpt>
      <trkpt lat="43.00991" lon="-0.06997">
        <ele>454.36</ele>
        <time>2014-01-15T14:03:23Z</time>
      </trkpt>
      <trkpt lat="43.01014" lon="-0.06996">
        <ele>454.36</ele>
        <time>2014-01-15T14:03:27Z</time>
      </trkpt>
      <trkpt lat="43.01061" lon="-0.06987">
        <ele>456.28</ele>
        <time>2014-01-15T14:03:40Z</time>
      </trkpt>
      <trkpt lat="43.01083" lon="-0.06981">
        <ele>458.69</ele>
        <time>2014-01-15T14:03:49Z</time>
      </trkpt>
      <trkpt lat="43.01093" lon="-0.0698">
        <ele>461.09</ele>
        <time>2014-01-15T14:03:55Z</time>
      </trkpt>
      <trkpt lat="43.01104" lon="-0.06979">
        <ele>460.13</ele>
        <time>2014-01-15T14:04:03Z</time>
      </trkpt>
      <trkpt lat="43.01116" lon="-0.06954">
        <ele>457.72</ele>
        <time>2014-01-15T14:04:13Z</time>
      </trkpt>
      <trkpt lat="43.01127" lon="-0.0692">
        <ele>458.69</ele>
        <time>2014-01-15T14:04:24Z</time>
      </trkpt>
      <trkpt lat="43.01141" lon="-0.06875">
        <ele>457.24</ele>
        <time>2014-01-15T14:04:38Z</time>
      </trkpt>
      <trkpt lat="43.01145" lon="-0.06837">
        <ele>454.84</ele>
        <time>2014-01-15T14:04:45Z</time>
      </trkpt>
      <trkpt lat="43.01148" lon="-0.06822">
        <ele>453.4</ele>
        <time>2014-01-15T14:04:48Z</time>
      </trkpt>
      <trkpt lat="43.01151" lon="-0.06808">
        <ele>451.96</ele>
        <time>2014-01-15T14:04:51Z</time>
      </trkpt>
      <trkpt lat="43.01155" lon="-0.068">
        <ele>450.52</ele>
        <time>2014-01-15T14:04:54Z</time>
      </trkpt>
      <trkpt lat="43.01157" lon="-0.06796">
        <ele>450.03</ele>
        <time>2014-01-15T14:04:55Z</time>
      </trkpt>
      <trkpt lat="43.01164" lon="-0.06777">
        <ele>447.15</ele>
        <time>2014-01-15T14:04:58Z</time>
      </trkpt>
      <trkpt lat="43.01179" lon="-0.06749">
        <ele>446.19</ele>
        <time>2014-01-15T14:05:04Z</time>
      </trkpt>
      <trkpt lat="43.012" lon="-0.06717">
        <ele>447.63</ele>
        <time>2014-01-15T14:05:17Z</time>
      </trkpt>
      <trkpt lat="43.01203" lon="-0.06714">
        <ele>447.63</ele>
        <time>2014-01-15T14:05:27Z</time>
      </trkpt>
      <trkpt lat="43.01203" lon="-0.06713">
        <ele>448.11</ele>
        <time>2014-01-15T14:05:44Z</time>
      </trkpt>
      <trkpt lat="43.01203" lon="-0.06713">
        <ele>448.59</ele>
        <time>2014-01-15T14:06:04Z</time>
      </trkpt>
      <trkpt lat="43.01204" lon="-0.06714">
        <ele>452.44</ele>
        <time>2014-01-15T14:06:21Z</time>
      </trkpt>
      <trkpt lat="43.01204" lon="-0.06714">
        <ele>448.59</ele>
        <time>2014-01-15T14:06:22Z</time>
      </trkpt>
      <trkpt lat="43.01212" lon="-0.06707">
        <ele>448.59</ele>
        <time>2014-01-15T14:06:35Z</time>
      </trkpt>
      <trkpt lat="43.0125" lon="-0.06702">
        <ele>449.55</ele>
        <time>2014-01-15T14:06:49Z</time>
      </trkpt>
      <trkpt lat="43.01263" lon="-0.067">
        <ele>450.52</ele>
        <time>2014-01-15T14:06:54Z</time>
      </trkpt>
      <trkpt lat="43.01279" lon="-0.0669">
        <ele>451.96</ele>
        <time>2014-01-15T14:07:02Z</time>
      </trkpt>
      <trkpt lat="43.01294" lon="-0.06684">
        <ele>453.4</ele>
        <time>2014-01-15T14:07:12Z</time>
      </trkpt>
      <trkpt lat="43.01311" lon="-0.0668">
        <ele>454.84</ele>
        <time>2014-01-15T14:07:24Z</time>
      </trkpt>
      <trkpt lat="43.01331" lon="-0.06669">
        <ele>455.8</ele>
        <time>2014-01-15T14:07:35Z</time>
      </trkpt>
      <trkpt lat="43.01347" lon="-0.06665">
        <ele>456.76</ele>
        <time>2014-01-15T14:07:44Z</time>
      </trkpt>
      <trkpt lat="43.01351" lon="-0.06668">
        <ele>457.24</ele>
        <time>2014-01-15T14:07:57Z</time>
      </trkpt>
      <trkpt lat="43.01352" lon="-0.06667">
        <ele>457.24</ele>
        <time>2014-01-15T14:08:19Z</time>
      </trkpt>
      <trkpt lat="43.01352" lon="-0.06667">
        <ele>457.24</ele>
        <time>2014-01-15T14:08:43Z</time>
      </trkpt>
      <trkpt lat="43.01352" lon="-0.06667">
        <ele>457.24</ele>
        <time>2014-01-15T14:09:06Z</time>
      </trkpt>
      <trkpt lat="43.01352" lon="-0.06668">
        <ele>456.76</ele>
        <time>2014-01-15T14:09:28Z</time>
      </trkpt>
      <trkpt lat="43.01352" lon="-0.06667">
        <ele>456.28</ele>
        <time>2014-01-15T14:09:32Z</time>
      </trkpt>
      <trkpt lat="43.01348" lon="-0.06683">
        <ele>455.8</ele>
        <time>2014-01-15T14:09:38Z</time>
      </trkpt>
      <trkpt lat="43.01347" lon="-0.06692">
        <ele>455.8</ele>
        <time>2014-01-15T14:09:40Z</time>
      </trkpt>
      <trkpt lat="43.01346" lon="-0.06717">
        <ele>453.88</ele>
        <time>2014-01-15T14:09:44Z</time>
      </trkpt>
      <trkpt lat="43.01349" lon="-0.06755">
        <ele>452.92</ele>
        <time>2014-01-15T14:09:49Z</time>
      </trkpt>
      <trkpt lat="43.01338" lon="-0.0678">
        <ele>451</ele>
        <time>2014-01-15T14:09:53Z</time>
      </trkpt>
      <trkpt lat="43.01319" lon="-0.06813">
        <ele>448.11</ele>
        <time>2014-01-15T14:09:58Z</time>
      </trkpt>
      <trkpt lat="43.0132" lon="-0.06856">
        <ele>446.67</ele>
        <time>2014-01-15T14:10:02Z</time>
      </trkpt>
      <trkpt lat="43.01329" lon="-0.06909">
        <ele>444.75</ele>
        <time>2014-01-15T14:10:08Z</time>
      </trkpt>
      <trkpt lat="43.01352" lon="-0.06998">
        <ele>441.86</ele>
        <time>2014-01-15T14:10:18Z</time>
      </trkpt>
      <trkpt lat="43.01357" lon="-0.07016">
        <ele>440.9</ele>
        <time>2014-01-15T14:10:20Z</time>
      </trkpt>
      <trkpt lat="43.01366" lon="-0.07064">
        <ele>439.46</ele>
        <time>2014-01-15T14:10:25Z</time>
      </trkpt>
      <trkpt lat="43.01367" lon="-0.07108">
        <ele>438.98</ele>
        <time>2014-01-15T14:10:30Z</time>
      </trkpt>
      <trkpt lat="43.0137" lon="-0.07124">
        <ele>439.46</ele>
        <time>2014-01-15T14:10:32Z</time>
      </trkpt>
      <trkpt lat="43.01383" lon="-0.07167">
        <ele>438.5</ele>
        <time>2014-01-15T14:10:38Z</time>
      </trkpt>
      <trkpt lat="43.0141" lon="-0.07219">
        <ele>435.13</ele>
        <time>2014-01-15T14:10:45Z</time>
      </trkpt>
      <trkpt lat="43.01409" lon="-0.07239">
        <ele>434.65</ele>
        <time>2014-01-15T14:10:47Z</time>
      </trkpt>
      <trkpt lat="43.01394" lon="-0.07319">
        <ele>438.02</ele>
        <time>2014-01-15T14:10:57Z</time>
      </trkpt>
      <trkpt lat="43.01376" lon="-0.07367">
        <ele>440.9</ele>
        <time>2014-01-15T14:11:08Z</time>
      </trkpt>
      <trkpt lat="43.01369" lon="-0.0738">
        <ele>442.34</ele>
        <time>2014-01-15T14:11:12Z</time>
      </trkpt>
      <trkpt lat="43.01357" lon="-0.07402">
        <ele>445.71</ele>
        <time>2014-01-15T14:11:20Z</time>
      </trkpt>
      <trkpt lat="43.01351" lon="-0.07418">
        <ele>447.63</ele>
        <time>2014-01-15T14:11:26Z</time>
      </trkpt>
      <trkpt lat="43.01355" lon="-0.07468">
        <ele>449.55</ele>
        <time>2014-01-15T14:11:40Z</time>
      </trkpt>
      <trkpt lat="43.01354" lon="-0.07521">
        <ele>450.03</ele>
        <time>2014-01-15T14:11:54Z</time>
      </trkpt>
      <trkpt lat="43.01367" lon="-0.07564">
        <ele>452.44</ele>
        <time>2014-01-15T14:12:07Z</time>
      </trkpt>
      <trkpt lat="43.01372" lon="-0.07571">
        <ele>453.88</ele>
        <time>2014-01-15T14:12:11Z</time>
      </trkpt>
      <trkpt lat="43.01385" lon="-0.07577">
        <ele>457.24</ele>
        <time>2014-01-15T14:12:19Z</time>
      </trkpt>
      <trkpt lat="43.01396" lon="-0.07583">
        <ele>459.17</ele>
        <time>2014-01-15T14:12:26Z</time>
      </trkpt>
      <trkpt lat="43.01408" lon="-0.07589">
        <ele>461.09</ele>
        <time>2014-01-15T14:12:32Z</time>
      </trkpt>
      <trkpt lat="43.0143" lon="-0.07594">
        <ele>464.45</ele>
        <time>2014-01-15T14:12:43Z</time>
      </trkpt>
      <trkpt lat="43.01438" lon="-0.07596">
        <ele>465.42</ele>
        <time>2014-01-15T14:12:47Z</time>
      </trkpt>
      <trkpt lat="43.01444" lon="-0.07597">
        <ele>466.86</ele>
        <time>2014-01-15T14:12:50Z</time>
      </trkpt>
      <trkpt lat="43.01457" lon="-0.07592">
        <ele>469.26</ele>
        <time>2014-01-15T14:12:59Z</time>
      </trkpt>
      <trkpt lat="43.01459" lon="-0.07591">
        <ele>469.74</ele>
        <time>2014-01-15T14:13:01Z</time>
      </trkpt>
      <trkpt lat="43.01471" lon="-0.07583">
        <ele>472.63</ele>
        <time>2014-01-15T14:13:10Z</time>
      </trkpt>
      <trkpt lat="43.01487" lon="-0.07579">
        <ele>475.99</ele>
        <time>2014-01-15T14:13:21Z</time>
      </trkpt>
      <trkpt lat="43.01503" lon="-0.0758">
        <ele>478.87</ele>
        <time>2014-01-15T14:13:32Z</time>
      </trkpt>
      <trkpt lat="43.01505" lon="-0.07586">
        <ele>479.35</ele>
        <time>2014-01-15T14:13:39Z</time>
      </trkpt>
      <trkpt lat="43.01506" lon="-0.07589">
        <ele>480.32</ele>
        <time>2014-01-15T14:13:42Z</time>
      </trkpt>
      <trkpt lat="43.01506" lon="-0.07583">
        <ele>479.84</ele>
        <time>2014-01-15T14:13:48Z</time>
      </trkpt>
      <trkpt lat="43.01509" lon="-0.07584">
        <ele>479.84</ele>
        <time>2014-01-15T14:13:56Z</time>
      </trkpt>
      <trkpt lat="43.01507" lon="-0.07584">
        <ele>479.84</ele>
        <time>2014-01-15T14:14:08Z</time>
      </trkpt>
      <trkpt lat="43.01507" lon="-0.07589">
        <ele>480.32</ele>
        <time>2014-01-15T14:14:42Z</time>
      </trkpt>
      <trkpt lat="43.01507" lon="-0.07588">
        <ele>479.84</ele>
        <time>2014-01-15T14:15:01Z</time>
      </trkpt>
      <trkpt lat="43.01507" lon="-0.07588">
        <ele>479.84</ele>
        <time>2014-01-15T14:15:21Z</time>
      </trkpt>
      <trkpt lat="43.01507" lon="-0.07588">
        <ele>479.84</ele>
        <time>2014-01-15T14:15:43Z</time>
      </trkpt>
      <trkpt lat="43.01506" lon="-0.07587">
        <ele>479.84</ele>
        <time>2014-01-15T14:16:05Z</time>
      </trkpt>
      <trkpt lat="43.01506" lon="-0.07587">
        <ele>479.35</ele>
        <time>2014-01-15T14:16:32Z</time>
      </trkpt>
      <trkpt lat="43.01506" lon="-0.07587">
        <ele>479.35</ele>
        <time>2014-01-15T14:16:52Z</time>
      </trkpt>
      <trkpt lat="43.01506" lon="-0.07587">
        <ele>479.84</ele>
        <time>2014-01-15T14:16:53Z</time>
      </trkpt>
      <trkpt lat="43.01506" lon="-0.07588">
        <ele>479.35</ele>
        <time>2014-01-15T14:16:55Z</time>
      </trkpt>
      <trkpt lat="43.01496" lon="-0.07597">
        <ele>479.35</ele>
        <time>2014-01-15T14:17:04Z</time>
      </trkpt>
      <trkpt lat="43.01459" lon="-0.07621">
        <ele>481.76</ele>
        <time>2014-01-15T14:17:19Z</time>
      </trkpt>
      <trkpt lat="43.01455" lon="-0.07624">
        <ele>481.76</ele>
        <time>2014-01-15T14:17:21Z</time>
      </trkpt>
      <trkpt lat="43.01449" lon="-0.07637">
        <ele>482.72</ele>
        <time>2014-01-15T14:17:26Z</time>
      </trkpt>
      <trkpt lat="43.01443" lon="-0.0769">
        <ele>484.64</ele>
        <time>2014-01-15T14:17:40Z</time>
      </trkpt>
      <trkpt lat="43.01441" lon="-0.07738">
        <ele>486.56</ele>
        <time>2014-01-15T14:17:53Z</time>
      </trkpt>
      <trkpt lat="43.01436" lon="-0.07782">
        <ele>488.01</ele>
        <time>2014-01-15T14:18:05Z</time>
      </trkpt>
      <trkpt lat="43.01417" lon="-0.07815">
        <ele>489.93</ele>
        <time>2014-01-15T14:18:17Z</time>
      </trkpt>
      <trkpt lat="43.01389" lon="-0.07857">
        <ele>491.37</ele>
        <time>2014-01-15T14:18:32Z</time>
      </trkpt>
      <trkpt lat="43.0136" lon="-0.07882">
        <ele>492.33</ele>
        <time>2014-01-15T14:18:45Z</time>
      </trkpt>
      <trkpt lat="43.01356" lon="-0.07887">
        <ele>493.29</ele>
        <time>2014-01-15T14:18:49Z</time>
      </trkpt>
      <trkpt lat="43.01341" lon="-0.07891">
        <ele>497.14</ele>
        <time>2014-01-15T14:18:59Z</time>
      </trkpt>
      <trkpt lat="43.01336" lon="-0.07892">
        <ele>498.1</ele>
        <time>2014-01-15T14:19:02Z</time>
      </trkpt>
      <trkpt lat="43.01325" lon="-0.07895">
        <ele>500.5</ele>
        <time>2014-01-15T14:19:10Z</time>
      </trkpt>
      <trkpt lat="43.01319" lon="-0.07902">
        <ele>501.95</ele>
        <time>2014-01-15T14:19:15Z</time>
      </trkpt>
      <trkpt lat="43.01318" lon="-0.07908">
        <ele>503.39</ele>
        <time>2014-01-15T14:19:18Z</time>
      </trkpt>
      <trkpt lat="43.01306" lon="-0.07917">
        <ele>503.87</ele>
        <time>2014-01-15T14:19:26Z</time>
      </trkpt>
      <trkpt lat="43.01297" lon="-0.07924">
        <ele>503.87</ele>
        <time>2014-01-15T14:19:33Z</time>
      </trkpt>
      <trkpt lat="43.01287" lon="-0.07916">
        <ele>506.27</ele>
        <time>2014-01-15T14:19:42Z</time>
      </trkpt>
      <trkpt lat="43.01287" lon="-0.0791">
        <ele>507.71</ele>
        <time>2014-01-15T14:19:56Z</time>
      </trkpt>
      <trkpt lat="43.01287" lon="-0.07911">
        <ele>507.71</ele>
        <time>2014-01-15T14:20:04Z</time>
      </trkpt>
      <trkpt lat="43.01286" lon="-0.07912">
        <ele>507.23</ele>
        <time>2014-01-15T14:20:17Z</time>
      </trkpt>
      <trkpt lat="43.01287" lon="-0.07911">
        <ele>506.75</ele>
        <time>2014-01-15T14:20:48Z</time>
      </trkpt>
      <trkpt lat="43.01287" lon="-0.07911">
        <ele>507.23</ele>
        <time>2014-01-15T14:21:09Z</time>
      </trkpt>
      <trkpt lat="43.01286" lon="-0.07912">
        <ele>506.27</ele>
        <time>2014-01-15T14:21:37Z</time>
      </trkpt>
      <trkpt lat="43.01287" lon="-0.07913">
        <ele>506.27</ele>
        <time>2014-01-15T14:22:05Z</time>
      </trkpt>
      <trkpt lat="43.01288" lon="-0.07913">
        <ele>506.27</ele>
        <time>2014-01-15T14:22:29Z</time>
      </trkpt>
      <trkpt lat="43.01288" lon="-0.07913">
        <ele>506.27</ele>
        <time>2014-01-15T14:22:57Z</time>
      </trkpt>
      <trkpt lat="43.01289" lon="-0.07913">
        <ele>505.31</ele>
        <time>2014-01-15T14:23:30Z</time>
      </trkpt>
      <trkpt lat="43.01289" lon="-0.07914">
        <ele>505.31</ele>
        <time>2014-01-15T14:24:00Z</time>
      </trkpt>
      <trkpt lat="43.01288" lon="-0.07914">
        <ele>505.79</ele>
        <time>2014-01-15T14:24:09Z</time>
      </trkpt>
      <trkpt lat="43.01299" lon="-0.07923">
        <ele>501.95</ele>
        <time>2014-01-15T14:24:16Z</time>
      </trkpt>
      <trkpt lat="43.01306" lon="-0.07921">
        <ele>501.95</ele>
        <time>2014-01-15T14:24:18Z</time>
      </trkpt>
      <trkpt lat="43.01315" lon="-0.07935">
        <ele>502.91</ele>
        <time>2014-01-15T14:24:24Z</time>
      </trkpt>
      <trkpt lat="43.01321" lon="-0.07946">
        <ele>503.87</ele>
        <time>2014-01-15T14:24:28Z</time>
      </trkpt>
      <trkpt lat="43.01326" lon="-0.07963">
        <ele>505.31</ele>
        <time>2014-01-15T14:24:34Z</time>
      </trkpt>
      <trkpt lat="43.01318" lon="-0.07997">
        <ele>508.19</ele>
        <time>2014-01-15T14:24:46Z</time>
      </trkpt>
      <trkpt lat="43.01313" lon="-0.08037">
        <ele>509.64</ele>
        <time>2014-01-15T14:24:58Z</time>
      </trkpt>
      <trkpt lat="43.01313" lon="-0.0804">
        <ele>509.16</ele>
        <time>2014-01-15T14:24:59Z</time>
      </trkpt>
      <trkpt lat="43.01311" lon="-0.08056">
        <ele>507.23</ele>
        <time>2014-01-15T14:25:04Z</time>
      </trkpt>
      <trkpt lat="43.01306" lon="-0.0807">
        <ele>504.83</ele>
        <time>2014-01-15T14:25:07Z</time>
      </trkpt>
      <trkpt lat="43.01304" lon="-0.08096">
        <ele>501.46</ele>
        <time>2014-01-15T14:25:11Z</time>
      </trkpt>
      <trkpt lat="43.01305" lon="-0.08116">
        <ele>500.02</ele>
        <time>2014-01-15T14:25:14Z</time>
      </trkpt>
      <trkpt lat="43.01306" lon="-0.0813">
        <ele>499.54</ele>
        <time>2014-01-15T14:25:16Z</time>
      </trkpt>
      <trkpt lat="43.01306" lon="-0.08142">
        <ele>497.62</ele>
        <time>2014-01-15T14:25:18Z</time>
      </trkpt>
      <trkpt lat="43.0131" lon="-0.08162">
        <ele>493.29</ele>
        <time>2014-01-15T14:25:22Z</time>
      </trkpt>
      <trkpt lat="43.01317" lon="-0.08181">
        <ele>489.45</ele>
        <time>2014-01-15T14:25:25Z</time>
      </trkpt>
      <trkpt lat="43.0132" lon="-0.08186">
        <ele>488.49</ele>
        <time>2014-01-15T14:25:26Z</time>
      </trkpt>
      <trkpt lat="43.0133" lon="-0.08206">
        <ele>484.64</ele>
        <time>2014-01-15T14:25:29Z</time>
      </trkpt>
      <trkpt lat="43.01344" lon="-0.08235">
        <ele>480.8</ele>
        <time>2014-01-15T14:25:33Z</time>
      </trkpt>
      <trkpt lat="43.0136" lon="-0.08269">
        <ele>476.95</ele>
        <time>2014-01-15T14:25:39Z</time>
      </trkpt>
      <trkpt lat="43.01369" lon="-0.08282">
        <ele>474.55</ele>
        <time>2014-01-15T14:25:42Z</time>
      </trkpt>
      <trkpt lat="43.01377" lon="-0.0829">
        <ele>472.14</ele>
        <time>2014-01-15T14:25:44Z</time>
      </trkpt>
      <trkpt lat="43.01388" lon="-0.08299">
        <ele>469.74</ele>
        <time>2014-01-15T14:25:46Z</time>
      </trkpt>
      <trkpt lat="43.014" lon="-0.08309">
        <ele>467.34</ele>
        <time>2014-01-15T14:25:48Z</time>
      </trkpt>
      <trkpt lat="43.01419" lon="-0.08333">
        <ele>463.49</ele>
        <time>2014-01-15T14:25:52Z</time>
      </trkpt>
      <trkpt lat="43.01423" lon="-0.08339">
        <ele>463.01</ele>
        <time>2014-01-15T14:25:53Z</time>
      </trkpt>
      <trkpt lat="43.01444" lon="-0.08358">
        <ele>461.09</ele>
        <time>2014-01-15T14:25:57Z</time>
      </trkpt>
      <trkpt lat="43.01464" lon="-0.0837">
        <ele>456.76</ele>
        <time>2014-01-15T14:26:00Z</time>
      </trkpt>
      <trkpt lat="43.01486" lon="-0.08382">
        <ele>454.84</ele>
        <time>2014-01-15T14:26:03Z</time>
      </trkpt>
      <trkpt lat="43.01494" lon="-0.08386">
        <ele>454.36</ele>
        <time>2014-01-15T14:26:04Z</time>
      </trkpt>
      <trkpt lat="43.01508" lon="-0.08392">
        <ele>453.4</ele>
        <time>2014-01-15T14:26:06Z</time>
      </trkpt>
      <trkpt lat="43.01528" lon="-0.08394">
        <ele>452.44</ele>
        <time>2014-01-15T14:26:12Z</time>
      </trkpt>
      <trkpt lat="43.01532" lon="-0.08393">
        <ele>451.96</ele>
        <time>2014-01-15T14:26:24Z</time>
      </trkpt>
      <trkpt lat="43.01538" lon="-0.08392">
        <ele>450.03</ele>
        <time>2014-01-15T14:26:41Z</time>
      </trkpt>
      <trkpt lat="43.01541" lon="-0.08392">
        <ele>449.07</ele>
        <time>2014-01-15T14:26:42Z</time>
      </trkpt>
      <trkpt lat="43.0156" lon="-0.08391">
        <ele>446.19</ele>
        <time>2014-01-15T14:26:46Z</time>
      </trkpt>
      <trkpt lat="43.0158" lon="-0.08395">
        <ele>443.79</ele>
        <time>2014-01-15T14:26:50Z</time>
      </trkpt>
      <trkpt lat="43.01607" lon="-0.08397">
        <ele>441.86</ele>
        <time>2014-01-15T14:26:59Z</time>
      </trkpt>
      <trkpt lat="43.01617" lon="-0.08396">
        <ele>441.86</ele>
        <time>2014-01-15T14:27:14Z</time>
      </trkpt>
      <trkpt lat="43.01621" lon="-0.08398">
        <ele>440.9</ele>
        <time>2014-01-15T14:27:30Z</time>
      </trkpt>
      <trkpt lat="43.01634" lon="-0.08392">
        <ele>437.06</ele>
        <time>2014-01-15T14:27:36Z</time>
      </trkpt>
      <trkpt lat="43.01643" lon="-0.08401">
        <ele>433.69</ele>
        <time>2014-01-15T14:27:40Z</time>
      </trkpt>
      <trkpt lat="43.01655" lon="-0.08413">
        <ele>430.33</ele>
        <time>2014-01-15T14:27:44Z</time>
      </trkpt>
      <trkpt lat="43.01669" lon="-0.08427">
        <ele>426.96</ele>
        <time>2014-01-15T14:27:49Z</time>
      </trkpt>
      <trkpt lat="43.01671" lon="-0.08432">
        <ele>426.48</ele>
        <time>2014-01-15T14:27:51Z</time>
      </trkpt>
      <trkpt lat="43.01664" lon="-0.08439">
        <ele>422.64</ele>
        <time>2014-01-15T14:27:55Z</time>
      </trkpt>
      <trkpt lat="43.01656" lon="-0.08452">
        <ele>417.83</ele>
        <time>2014-01-15T14:28:00Z</time>
      </trkpt>
      <trkpt lat="43.0166" lon="-0.08454">
        <ele>416.87</ele>
        <time>2014-01-15T14:28:02Z</time>
      </trkpt>
      <trkpt lat="43.01666" lon="-0.08453">
        <ele>415.91</ele>
        <time>2014-01-15T14:28:05Z</time>
      </trkpt>
      <trkpt lat="43.01686" lon="-0.08458">
        <ele>418.31</ele>
        <time>2014-01-15T14:28:14Z</time>
      </trkpt>
      <trkpt lat="43.01709" lon="-0.08459">
        <ele>417.35</ele>
        <time>2014-01-15T14:28:24Z</time>
      </trkpt>
      <trkpt lat="43.01712" lon="-0.08457">
        <ele>418.31</ele>
        <time>2014-01-15T14:28:25Z</time>
      </trkpt>
      <trkpt lat="43.01716" lon="-0.08455">
        <ele>419.75</ele>
        <time>2014-01-15T14:28:28Z</time>
      </trkpt>
      <trkpt lat="43.0174" lon="-0.08445">
        <ele>421.19</ele>
        <time>2014-01-15T14:28:39Z</time>
      </trkpt>
      <trkpt lat="43.01743" lon="-0.08441">
        <ele>422.16</ele>
        <time>2014-01-15T14:28:43Z</time>
      </trkpt>
      <trkpt lat="43.01764" lon="-0.08432">
        <ele>421.68</ele>
        <time>2014-01-15T14:28:53Z</time>
      </trkpt>
      <trkpt lat="43.01769" lon="-0.0842">
        <ele>419.75</ele>
        <time>2014-01-15T14:28:58Z</time>
      </trkpt>
      <trkpt lat="43.0178" lon="-0.08415">
        <ele>419.75</ele>
        <time>2014-01-15T14:29:10Z</time>
      </trkpt>
      <trkpt lat="43.01784" lon="-0.08411">
        <ele>420.23</ele>
        <time>2014-01-15T14:29:14Z</time>
      </trkpt>
      <trkpt lat="43.01789" lon="-0.08409">
        <ele>419.75</ele>
        <time>2014-01-15T14:29:29Z</time>
      </trkpt>
      <trkpt lat="43.01789" lon="-0.0841">
        <ele>419.75</ele>
        <time>2014-01-15T14:29:57Z</time>
      </trkpt>
      <trkpt lat="43.0179" lon="-0.08409">
        <ele>420.23</ele>
        <time>2014-01-15T14:30:11Z</time>
      </trkpt>
      <trkpt lat="43.01795" lon="-0.08407">
        <ele>417.83</ele>
        <time>2014-01-15T14:30:14Z</time>
      </trkpt>
      <trkpt lat="43.01807" lon="-0.08396">
        <ele>414.95</ele>
        <time>2014-01-15T14:30:19Z</time>
      </trkpt>
      <trkpt lat="43.01823" lon="-0.08384">
        <ele>414.47</ele>
        <time>2014-01-15T14:30:24Z</time>
      </trkpt>
      <trkpt lat="43.01835" lon="-0.08379">
        <ele>417.83</ele>
        <time>2014-01-15T14:30:29Z</time>
      </trkpt>
      <trkpt lat="43.01851" lon="-0.08375">
        <ele>419.75</ele>
        <time>2014-01-15T14:30:35Z</time>
      </trkpt>
      <trkpt lat="43.0186" lon="-0.08372">
        <ele>420.23</ele>
        <time>2014-01-15T14:30:39Z</time>
      </trkpt>
      <trkpt lat="43.01864" lon="-0.08371">
        <ele>420.71</ele>
        <time>2014-01-15T14:30:42Z</time>
      </trkpt>
      <trkpt lat="43.01882" lon="-0.08361">
        <ele>419.27</ele>
        <time>2014-01-15T14:30:50Z</time>
      </trkpt>
      <trkpt lat="43.01894" lon="-0.08351">
        <ele>419.27</ele>
        <time>2014-01-15T14:30:56Z</time>
      </trkpt>
      <trkpt lat="43.01914" lon="-0.08351">
        <ele>418.79</ele>
        <time>2014-01-15T14:31:05Z</time>
      </trkpt>
      <trkpt lat="43.01919" lon="-0.08351">
        <ele>418.79</ele>
        <time>2014-01-15T14:31:08Z</time>
      </trkpt>
      <trkpt lat="43.01936" lon="-0.08344">
        <ele>416.87</ele>
        <time>2014-01-15T14:31:17Z</time>
      </trkpt>
      <trkpt lat="43.01945" lon="-0.08329">
        <ele>416.39</ele>
        <time>2014-01-15T14:31:21Z</time>
      </trkpt>
      <trkpt lat="43.01961" lon="-0.08309">
        <ele>416.87</ele>
        <time>2014-01-15T14:31:28Z</time>
      </trkpt>
      <trkpt lat="43.01975" lon="-0.08311">
        <ele>418.31</ele>
        <time>2014-01-15T14:31:34Z</time>
      </trkpt>
      <trkpt lat="43.01986" lon="-0.08308">
        <ele>419.75</ele>
        <time>2014-01-15T14:31:46Z</time>
      </trkpt>
      <trkpt lat="43.01989" lon="-0.08309">
        <ele>420.23</ele>
        <time>2014-01-15T14:31:48Z</time>
      </trkpt>
      <trkpt lat="43.02003" lon="-0.08306">
        <ele>420.23</ele>
        <time>2014-01-15T14:31:55Z</time>
      </trkpt>
      <trkpt lat="43.02012" lon="-0.083">
        <ele>419.27</ele>
        <time>2014-01-15T14:31:58Z</time>
      </trkpt>
      <trkpt lat="43.02031" lon="-0.08268">
        <ele>418.31</ele>
        <time>2014-01-15T14:32:08Z</time>
      </trkpt>
      <trkpt lat="43.02032" lon="-0.08264">
        <ele>417.35</ele>
        <time>2014-01-15T14:32:09Z</time>
      </trkpt>
      <trkpt lat="43.02055" lon="-0.08273">
        <ele>413.5</ele>
        <time>2014-01-15T14:32:16Z</time>
      </trkpt>
      <trkpt lat="43.02066" lon="-0.08288">
        <ele>411.58</ele>
        <time>2014-01-15T14:32:21Z</time>
      </trkpt>
      <trkpt lat="43.0208" lon="-0.08287">
        <ele>410.14</ele>
        <time>2014-01-15T14:32:28Z</time>
      </trkpt>
      <trkpt lat="43.02091" lon="-0.08266">
        <ele>412.06</ele>
        <time>2014-01-15T14:32:39Z</time>
      </trkpt>
      <trkpt lat="43.02094" lon="-0.08264">
        <ele>411.58</ele>
        <time>2014-01-15T14:32:49Z</time>
      </trkpt>
      <trkpt lat="43.02096" lon="-0.0826">
        <ele>412.06</ele>
        <time>2014-01-15T14:32:58Z</time>
      </trkpt>
      <trkpt lat="43.02107" lon="-0.08251">
        <ele>411.58</ele>
        <time>2014-01-15T14:33:06Z</time>
      </trkpt>
      <trkpt lat="43.02114" lon="-0.08246">
        <ele>411.58</ele>
        <time>2014-01-15T14:33:08Z</time>
      </trkpt>
      <trkpt lat="43.02133" lon="-0.08245">
        <ele>413.02</ele>
        <time>2014-01-15T14:33:15Z</time>
      </trkpt>
      <trkpt lat="43.02137" lon="-0.08243">
        <ele>413.5</ele>
        <time>2014-01-15T14:33:17Z</time>
      </trkpt>
      <trkpt lat="43.02156" lon="-0.08236">
        <ele>413.02</ele>
        <time>2014-01-15T14:33:23Z</time>
      </trkpt>
      <trkpt lat="43.02162" lon="-0.08231">
        <ele>413.02</ele>
        <time>2014-01-15T14:33:26Z</time>
      </trkpt>
      <trkpt lat="43.02174" lon="-0.08224">
        <ele>413.5</ele>
        <time>2014-01-15T14:33:32Z</time>
      </trkpt>
      <trkpt lat="43.02208" lon="-0.08208">
        <ele>413.5</ele>
        <time>2014-01-15T14:33:42Z</time>
      </trkpt>
      <trkpt lat="43.02211" lon="-0.08206">
        <ele>413.98</ele>
        <time>2014-01-15T14:33:43Z</time>
      </trkpt>
      <trkpt lat="43.02218" lon="-0.08209">
        <ele>415.43</ele>
        <time>2014-01-15T14:33:46Z</time>
      </trkpt>
      <trkpt lat="43.0222" lon="-0.08219">
        <ele>414.95</ele>
        <time>2014-01-15T14:33:50Z</time>
      </trkpt>
      <trkpt lat="43.02222" lon="-0.08237">
        <ele>415.43</ele>
        <time>2014-01-15T14:33:58Z</time>
      </trkpt>
      <trkpt lat="43.02223" lon="-0.08244">
        <ele>415.43</ele>
        <time>2014-01-15T14:34:02Z</time>
      </trkpt>
      <trkpt lat="43.02224" lon="-0.08265">
        <ele>415.43</ele>
        <time>2014-01-15T14:34:12Z</time>
      </trkpt>
      <trkpt lat="43.02224" lon="-0.08296">
        <ele>415.43</ele>
        <time>2014-01-15T14:34:24Z</time>
      </trkpt>
      <trkpt lat="43.02224" lon="-0.08306">
        <ele>415.43</ele>
        <time>2014-01-15T14:34:27Z</time>
      </trkpt>
      <trkpt lat="43.02229" lon="-0.08313">
        <ele>414.47</ele>
        <time>2014-01-15T14:34:36Z</time>
      </trkpt>
      <trkpt lat="43.02229" lon="-0.08311">
        <ele>412.54</ele>
        <time>2014-01-15T14:34:37Z</time>
      </trkpt>
      <trkpt lat="43.02229" lon="-0.08308">
        <ele>412.06</ele>
        <time>2014-01-15T14:34:40Z</time>
      </trkpt>
      <trkpt lat="43.02225" lon="-0.08309">
        <ele>412.06</ele>
        <time>2014-01-15T14:34:42Z</time>
      </trkpt>
      <trkpt lat="43.02234" lon="-0.08313">
        <ele>413.02</ele>
        <time>2014-01-15T14:34:50Z</time>
      </trkpt>
      <trkpt lat="43.02236" lon="-0.08314">
        <ele>410.62</ele>
        <time>2014-01-15T14:34:53Z</time>
      </trkpt>
      <trkpt lat="43.02236" lon="-0.08314">
        <ele>413.5</ele>
        <time>2014-01-15T14:34:54Z</time>
      </trkpt>
      <trkpt lat="43.02236" lon="-0.08314">
        <ele>408.22</ele>
        <time>2014-01-15T14:34:55Z</time>
      </trkpt>
      <trkpt lat="43.02236" lon="-0.08315">
        <ele>413.5</ele>
        <time>2014-01-15T14:34:56Z</time>
      </trkpt>
      <trkpt lat="43.02236" lon="-0.08315">
        <ele>413.98</ele>
        <time>2014-01-15T14:35:00Z</time>
      </trkpt>
      <trkpt lat="43.02242" lon="-0.08318">
        <ele>413.02</ele>
        <time>2014-01-15T14:35:19Z</time>
      </trkpt>
      <trkpt lat="43.02244" lon="-0.08319">
        <ele>413.98</ele>
        <time>2014-01-15T14:35:44Z</time>
      </trkpt>
      <trkpt lat="43.02243" lon="-0.0832">
        <ele>413.98</ele>
        <time>2014-01-15T14:35:58Z</time>
      </trkpt>
      <trkpt lat="43.02241" lon="-0.08321">
        <ele>414.95</ele>
        <time>2014-01-15T14:36:01Z</time>
      </trkpt>
      <trkpt lat="43.02235" lon="-0.08319">
        <ele>415.91</ele>
        <time>2014-01-15T14:36:05Z</time>
      </trkpt>
      <trkpt lat="43.02232" lon="-0.0832">
        <ele>415.43</ele>
        <time>2014-01-15T14:36:07Z</time>
      </trkpt>
      <trkpt lat="43.02221" lon="-0.08335">
        <ele>416.39</ele>
        <time>2014-01-15T14:36:14Z</time>
      </trkpt>
      <trkpt lat="43.02204" lon="-0.08366">
        <ele>414.95</ele>
        <time>2014-01-15T14:36:22Z</time>
      </trkpt>
      <trkpt lat="43.02198" lon="-0.0838">
        <ele>414.95</ele>
        <time>2014-01-15T14:36:25Z</time>
      </trkpt>
      <trkpt lat="43.02196" lon="-0.08391">
        <ele>414.47</ele>
        <time>2014-01-15T14:36:27Z</time>
      </trkpt>
      <trkpt lat="43.02203" lon="-0.08432">
        <ele>413.02</ele>
        <time>2014-01-15T14:36:33Z</time>
      </trkpt>
      <trkpt lat="43.0222" lon="-0.08449">
        <ele>412.54</ele>
        <time>2014-01-15T14:36:37Z</time>
      </trkpt>
      <trkpt lat="43.02236" lon="-0.0848">
        <ele>411.58</ele>
        <time>2014-01-15T14:36:42Z</time>
      </trkpt>
      <trkpt lat="43.0224" lon="-0.08507">
        <ele>411.58</ele>
        <time>2014-01-15T14:36:46Z</time>
      </trkpt>
      <trkpt lat="43.02236" lon="-0.08523">
        <ele>411.58</ele>
        <time>2014-01-15T14:36:48Z</time>
      </trkpt>
      <trkpt lat="43.02215" lon="-0.08601">
        <ele>413.5</ele>
        <time>2014-01-15T14:37:01Z</time>
      </trkpt>
      <trkpt lat="43.02209" lon="-0.08623">
        <ele>414.47</ele>
        <time>2014-01-15T14:37:05Z</time>
      </trkpt>
      <trkpt lat="43.02203" lon="-0.08646">
        <ele>415.43</ele>
        <time>2014-01-15T14:37:09Z</time>
      </trkpt>
      <trkpt lat="43.02189" lon="-0.087">
        <ele>416.87</ele>
        <time>2014-01-15T14:37:17Z</time>
      </trkpt>
      <trkpt lat="43.02167" lon="-0.08785">
        <ele>416.39</ele>
        <time>2014-01-15T14:37:28Z</time>
      </trkpt>
      <trkpt lat="43.02135" lon="-0.08913">
        <ele>416.39</ele>
        <time>2014-01-15T14:37:45Z</time>
      </trkpt>
      <trkpt lat="43.02124" lon="-0.0896">
        <ele>416.39</ele>
        <time>2014-01-15T14:37:51Z</time>
      </trkpt>
      <trkpt lat="43.02102" lon="-0.0905">
        <ele>416.39</ele>
        <time>2014-01-15T14:38:01Z</time>
      </trkpt>
      <trkpt lat="43.02081" lon="-0.09131">
        <ele>416.87</ele>
        <time>2014-01-15T14:38:10Z</time>
      </trkpt>
      <trkpt lat="43.02068" lon="-0.09187">
        <ele>416.39</ele>
        <time>2014-01-15T14:38:16Z</time>
      </trkpt>
      <trkpt lat="43.02064" lon="-0.09208">
        <ele>416.39</ele>
        <time>2014-01-15T14:38:18Z</time>
      </trkpt>
      <trkpt lat="43.02054" lon="-0.09249">
        <ele>416.39</ele>
        <time>2014-01-15T14:38:22Z</time>
      </trkpt>
      <trkpt lat="43.02012" lon="-0.0941">
        <ele>416.39</ele>
        <time>2014-01-15T14:38:37Z</time>
      </trkpt>
      <trkpt lat="43.02005" lon="-0.09429">
        <ele>416.87</ele>
        <time>2014-01-15T14:38:39Z</time>
      </trkpt>
      <trkpt lat="43.01997" lon="-0.09448">
        <ele>417.35</ele>
        <time>2014-01-15T14:38:41Z</time>
      </trkpt>
      <trkpt lat="43.01967" lon="-0.09509">
        <ele>417.35</ele>
        <time>2014-01-15T14:38:48Z</time>
      </trkpt>
      <trkpt lat="43.01961" lon="-0.0954">
        <ele>417.35</ele>
        <time>2014-01-15T14:38:54Z</time>
      </trkpt>
      <trkpt lat="43.01959" lon="-0.09549">
        <ele>416.87</ele>
        <time>2014-01-15T14:38:56Z</time>
      </trkpt>
      <trkpt lat="43.01946" lon="-0.09581">
        <ele>417.35</ele>
        <time>2014-01-15T14:39:05Z</time>
      </trkpt>
      <trkpt lat="43.01946" lon="-0.0958">
        <ele>417.35</ele>
        <time>2014-01-15T14:39:16Z</time>
      </trkpt>
      <trkpt lat="43.01942" lon="-0.0958">
        <ele>417.35</ele>
        <time>2014-01-15T14:39:29Z</time>
      </trkpt>
      <trkpt lat="43.01942" lon="-0.09579">
        <ele>417.83</ele>
        <time>2014-01-15T14:40:11Z</time>
      </trkpt>
      <trkpt lat="43.01943" lon="-0.09579">
        <ele>417.83</ele>
        <time>2014-01-15T14:40:56Z</time>
      </trkpt>
      <trkpt lat="43.01942" lon="-0.09579">
        <ele>418.31</ele>
        <time>2014-01-15T14:41:33Z</time>
      </trkpt>
      <trkpt lat="43.01944" lon="-0.0958">
        <ele>418.31</ele>
        <time>2014-01-15T14:42:14Z</time>
      </trkpt>
      <trkpt lat="43.01944" lon="-0.09579">
        <ele>418.31</ele>
        <time>2014-01-15T14:42:57Z</time>
      </trkpt>
      <trkpt lat="43.01943" lon="-0.09578">
        <ele>418.31</ele>
        <time>2014-01-15T14:43:47Z</time>
      </trkpt>
      <trkpt lat="43.01943" lon="-0.09577">
        <ele>418.79</ele>
        <time>2014-01-15T14:44:33Z</time>
      </trkpt>
      <trkpt lat="43.01943" lon="-0.09578">
        <ele>418.79</ele>
        <time>2014-01-15T14:45:16Z</time>
      </trkpt>
      <trkpt lat="43.01943" lon="-0.09579">
        <ele>419.75</ele>
        <time>2014-01-15T14:46:06Z</time>
      </trkpt>
      <trkpt lat="43.01942" lon="-0.09578">
        <ele>419.75</ele>
        <time>2014-01-15T14:46:52Z</time>
      </trkpt>
      <trkpt lat="43.01941" lon="-0.09579">
        <ele>420.23</ele>
        <time>2014-01-15T14:47:36Z</time>
      </trkpt>
      <trkpt lat="43.01941" lon="-0.09579">
        <ele>420.23</ele>
        <time>2014-01-15T14:48:19Z</time>
      </trkpt>
      <trkpt lat="43.01943" lon="-0.09579">
        <ele>420.23</ele>
        <time>2014-01-15T14:49:02Z</time>
      </trkpt>
      <trkpt lat="43.01943" lon="-0.0958">
        <ele>420.23</ele>
        <time>2014-01-15T14:49:41Z</time>
      </trkpt>
      <trkpt lat="43.01945" lon="-0.0958">
        <ele>420.23</ele>
        <time>2014-01-15T14:50:22Z</time>
      </trkpt>
      <trkpt lat="43.01944" lon="-0.09578">
        <ele>420.23</ele>
        <time>2014-01-15T14:51:06Z</time>
      </trkpt>
      <trkpt lat="43.01942" lon="-0.0958">
        <ele>419.75</ele>
        <time>2014-01-15T14:51:48Z</time>
      </trkpt>
      <trkpt lat="43.01942" lon="-0.0958">
        <ele>419.75</ele>
        <time>2014-01-15T14:52:33Z</time>
      </trkpt>
      <trkpt lat="43.01942" lon="-0.09579">
        <ele>419.27</ele>
        <time>2014-01-15T14:53:17Z</time>
      </trkpt>
      <trkpt lat="43.01943" lon="-0.09578">
        <ele>419.27</ele>
        <time>2014-01-15T14:53:57Z</time>
      </trkpt>
      <trkpt lat="43.01942" lon="-0.09579">
        <ele>419.27</ele>
        <time>2014-01-15T14:54:38Z</time>
      </trkpt>
      <trkpt lat="43.01943" lon="-0.09579">
        <ele>419.27</ele>
        <time>2014-01-15T14:55:21Z</time>
      </trkpt>
      <trkpt lat="43.0194" lon="-0.09578">
        <ele>419.27</ele>
        <time>2014-01-15T14:56:03Z</time>
      </trkpt>
      <trkpt lat="43.01942" lon="-0.09577">
        <ele>419.75</ele>
        <time>2014-01-15T14:56:47Z</time>
      </trkpt>
      <trkpt lat="43.01942" lon="-0.09578">
        <ele>419.27</ele>
        <time>2014-01-15T14:57:31Z</time>
      </trkpt>
      <trkpt lat="43.01943" lon="-0.09579">
        <ele>419.75</ele>
        <time>2014-01-15T14:58:09Z</time>
      </trkpt>
      <trkpt lat="43.01942" lon="-0.09578">
        <ele>419.27</ele>
        <time>2014-01-15T14:58:48Z</time>
      </trkpt>
      <trkpt lat="43.0194" lon="-0.09576">
        <ele>419.27</ele>
        <time>2014-01-15T14:58:59Z</time>
      </trkpt>
      <trkpt lat="43.01941" lon="-0.09575">
        <ele>419.75</ele>
        <time>2014-01-15T14:59:34Z</time>
      </trkpt>
      <trkpt lat="43.01939" lon="-0.09577">
        <ele>419.75</ele>
        <time>2014-01-15T15:00:13Z</time>
      </trkpt>
      <trkpt lat="43.01939" lon="-0.09576">
        <ele>419.75</ele>
        <time>2014-01-15T15:00:52Z</time>
      </trkpt>
      <trkpt lat="43.01939" lon="-0.09576">
        <ele>419.27</ele>
        <time>2014-01-15T15:01:33Z</time>
      </trkpt>
      <trkpt lat="43.01939" lon="-0.09577">
        <ele>419.27</ele>
        <time>2014-01-15T15:02:15Z</time>
      </trkpt>
      <trkpt lat="43.01939" lon="-0.09578">
        <ele>420.23</ele>
        <time>2014-01-15T15:02:55Z</time>
      </trkpt>
      <trkpt lat="43.01938" lon="-0.09578">
        <ele>420.23</ele>
        <time>2014-01-15T15:03:32Z</time>
      </trkpt>
      <trkpt lat="43.0194" lon="-0.09577">
        <ele>420.71</ele>
        <time>2014-01-15T15:04:08Z</time>
      </trkpt>
      <trkpt lat="43.01939" lon="-0.09576">
        <ele>421.19</ele>
        <time>2014-01-15T15:04:40Z</time>
      </trkpt>
      <trkpt lat="43.01939" lon="-0.09576">
        <ele>421.68</ele>
        <time>2014-01-15T15:05:13Z</time>
      </trkpt>
      <trkpt lat="43.01939" lon="-0.09576">
        <ele>421.68</ele>
        <time>2014-01-15T15:05:48Z</time>
      </trkpt>
      <trkpt lat="43.01939" lon="-0.09576">
        <ele>421.19</ele>
        <time>2014-01-15T15:06:24Z</time>
      </trkpt>
      <trkpt lat="43.01939" lon="-0.09575">
        <ele>421.68</ele>
        <time>2014-01-15T15:06:57Z</time>
      </trkpt>
      <trkpt lat="43.01939" lon="-0.09576">
        <ele>421.19</ele>
        <time>2014-01-15T15:07:30Z</time>
      </trkpt>
      <trkpt lat="43.0194" lon="-0.09577">
        <ele>420.23</ele>
        <time>2014-01-15T15:08:04Z</time>
      </trkpt>
      <trkpt lat="43.0194" lon="-0.09577">
        <ele>420.71</ele>
        <time>2014-01-15T15:08:21Z</time>
      </trkpt>
    </trkseg>
  </trk>
</gpx>